Foochow — 9V2175 — position and weather

sailwx.info

Track history (hours):
 
Tides and Currents Weather Stations Pressure Air Temp Water Temp Dewpoint Dewpoint Depression Visibility Wind Speed Wind Dir Waves Ship Positions

Foochow

Last reported at 2017-Nov-10 21:26 UTC. Time now 2017-Nov-21 04:41 UTC.
Position S 33°01' E 152°28'.
Warning: this ship's position is 10 days out of date.

Length 180 m; draft 10.7 m.

Type: Cargo ship. MMSI: 563217000.

Date/timePositionNaut miles runAvg speedWind from/ knotsBaromVisibWave heightAir tempDewpointWater temp
2017-Nov-10 21:26S 33°01' E 152°28'511.7
2017-Nov-10 21:00S 33°00' E 152°22'611.7
2017-Nov-10 20:30S 32°60' E 152°15'611.2
2017-Nov-10 20:00S 32°59' E 152°09'611.3
2017-Nov-10 19:30S 32°58' E 152°02'612.0
2017-Nov-10 19:00S 32°58' E 151°55'5 8.8
2017-Nov-10 18:29S 32°57' E 151°50'3 5.1
2017-Nov-10 18:00S 32°55' E 151°47'2 3.6
2017-Nov-10 17:29S 32°54' E 151°46'1 0.0
2017-Nov-09 17:59S 32°53' E 151°45'1 1.5
2017-Nov-09 17:30S 32°53' E 151°46'2 3.3
2017-Nov-09 17:00S 32°55' E 151°47'3 6.3
2017-Nov-09 16:31S 32°55' E 151°50'3 6.9
2017-Nov-09 16:00S 32°58' E 151°52'3 5.2
2017-Nov-09 15:30S 33°00' E 151°53'2 4.0
2017-Nov-09 15:00S 33°02' E 151°52'3 5.4
2017-Nov-09 14:31S 33°05' E 151°52'4 6.7
2017-Nov-09 13:56S 33°09' E 151°52'2 2.8
2017-Nov-09 13:21S 33°10' E 151°51'1 1.3
2017-Nov-09 12:53S 33°10' E 151°52'1 1.4
2017-Nov-09 12:30S 33°10' E 151°52'1 1.6
2017-Nov-09 11:59S 33°09' E 151°53'1 1.5
2017-Nov-09 11:30S 33°09' E 151°54'1 1.5
2017-Nov-09 10:56S 33°08' E 151°55'1 2.5
2017-Nov-09 10:26S 33°07' E 151°54'1 3.1
2017-Nov-09 10:00S 33°06' E 151°53'3 5.1
2017-Nov-09 09:29S 33°09' E 151°53'1 1.3
2017-Nov-09 09:01S 33°09' E 151°53'1 1.3
2017-Nov-09 08:26S 33°08' E 151°54'1 1.3
2017-Nov-09 08:00S 33°08' E 151°55'1 1.3
2017-Nov-09 07:17S 33°08' E 151°56'0 1.3
2017-Nov-09 06:59S 33°08' E 151°56'0 1.0
2017-Nov-09 06:31S 33°08' E 151°57'1 1.2
2017-Nov-09 06:01S 33°07' E 151°57'0 0.8
2017-Nov-09 05:30S 33°07' E 151°57'2 4.4
2017-Nov-09 04:59S 33°07' E 151°54'2 4.6
2017-Nov-09 04:30S 33°07' E 151°52'0 0.6
2017-Nov-09 04:01S 33°07' E 151°51'0 0.9
2017-Nov-09 03:30S 33°07' E 151°52'1 1.0
2017-Nov-09 03:00S 33°07' E 151°53'1 0.9
2017-Nov-09 02:27S 33°07' E 151°53'0 0.9
2017-Nov-09 02:01S 33°07' E 151°54'0 0.9
2017-Nov-09 01:30S 33°07' E 151°54'1 1.0
2017-Nov-09 01:01S 33°07' E 151°55'0 0.9
2017-Nov-09 00:31S 33°07' E 151°55'0 0.8
2017-Nov-09 00:01S 33°07' E 151°56'0 0.8
2017-Nov-08 23:30S 33°07' E 151°56'0 0.7
2017-Nov-08 23:00S 33°07' E 151°57'0 0.6
2017-Nov-08 22:21S 33°07' E 151°57'2 6.0
2017-Nov-08 22:00S 33°06' E 151°55'2 3.3
2017-Nov-08 21:30S 33°05' E 151°53'0 0.3
2017-Nov-08 21:00S 33°05' E 151°53'0 0.2
2017-Nov-08 20:30S 33°05' E 151°53'0 0.3
2017-Nov-08 20:01S 33°05' E 151°53'0 0.4
2017-Nov-08 19:31S 33°06' E 151°53'0 0.6
2017-Nov-08 19:01S 33°06' E 151°53'0 0.7
2017-Nov-08 18:31S 33°06' E 151°54'0 0.7
2017-Nov-08 18:01S 33°06' E 151°54'0 0.6
2017-Nov-08 17:31S 33°06' E 151°55'0 0.4
2017-Nov-08 17:01S 33°06' E 151°55'1 2.8
2017-Nov-08 16:30S 33°05' E 151°54'0 0.3
2017-Nov-08 16:00S 33°05' E 151°54'0 0.7
2017-Nov-08 15:31S 33°05' E 151°54'0 0.6
2017-Nov-08 15:00S 33°05' E 151°54'0 0.3
2017-Nov-08 14:30S 33°05' E 151°55'2 3.0
2017-Nov-08 14:01S 33°07' E 151°54'0 0.6
2017-Nov-08 13:31S 33°07' E 151°54'2 1.3
2017-Nov-08 12:20S 33°05' E 151°54'1 2.1
2017-Nov-08 12:00S 33°05' E 151°54'0 0.7
2017-Nov-08 11:31S 33°06' E 151°54'0 0.6
2017-Nov-08 11:00S 33°06' E 151°54'0 0.7
2017-Nov-08 10:31S 33°06' E 151°55'0 0.1
2017-Nov-08 09:59S 33°06' E 151°55'4 1.1
2017-Nov-08 06:29S 33°08' E 151°51'2 3.7
2017-Nov-08 05:59S 33°10' E 151°51'4 1.9
2017-Nov-08 03:48S 33°14' E 151°49'10 2.1
2017-Nov-07 22:50S 33°05' E 151°55'2 4.7
2017-Nov-07 22:30S 33°06' E 151°54'3 4.1
2017-Nov-07 21:48S 33°09' E 151°52'1 3.5
2017-Nov-07 21:26S 33°10' E 151°51'2 0.4
2017-Nov-07 17:10S 33°12' E 151°52'5 0.7
2017-Nov-07 09:26S 33°06' E 151°54'1 2.0
2017-Nov-07 09:00S 33°06' E 151°53'1 1.4
2017-Nov-07 08:12S 33°06' E 151°54'2 2.4
2017-Nov-07 07:23S 33°04' E 151°55'1 2.3
2017-Nov-07 07:00S 33°03' E 151°56'1 1.1
2017-Nov-07 06:31S 33°04' E 151°56'1 1.2
2017-Nov-07 06:00S 33°04' E 151°56'1 1.0
2017-Nov-07 05:31S 33°05' E 151°56'0 1.0
2017-Nov-07 05:01S 33°05' E 151°57'1 1.1
2017-Nov-07 04:30S 33°06' E 151°57'1 1.0
2017-Nov-07 04:00S 33°06' E 151°57'3 2.1
2017-Nov-07 02:44S 33°04' E 151°57'1 3.9
2017-Nov-07 02:30S 33°03' E 151°58'0 0.8
2017-Nov-07 02:00S 33°02' E 151°58'0 1.0
2017-Nov-07 01:31S 33°03' E 151°58'0 1.0
2017-Nov-07 01:00S 33°03' E 151°58'0 0.8
2017-Nov-07 00:31S 33°04' E 151°58'0 0.8
2017-Nov-07 00:00S 33°04' E 151°58'0 0.8
2017-Nov-06 23:30S 33°05' E 151°59'0 0.8
2017-Nov-06 23:01S 33°05' E 151°59'0 0.7
2017-Nov-06 22:30S 33°05' E 151°59'0 0.7
2017-Nov-06 22:01S 33°06' E 151°59'1 1.1
2017-Nov-06 21:30S 33°05' E 151°58'1 2.9
2017-Nov-06 21:00S 33°04' E 151°57'2 2.9
2017-Nov-06 20:28S 33°03' E 151°56'8 0.4
2017-Nov-06 02:14S 33°11' E 151°56'0 1.8
2017-Nov-06 02:00S 33°10' E 151°56'1 2.4
2017-Nov-06 01:30S 33°09' E 151°57'1 2.5
2017-Nov-06 01:00S 33°08' E 151°57'1 2.6
2017-Nov-06 00:29S 33°07' E 151°58'1 2.5
2017-Nov-06 00:00S 33°06' E 151°58'1 1.9
2017-Nov-05 23:30S 33°06' E 151°57'1 1.9
2017-Nov-05 23:00S 33°06' E 151°56'1 1.8
2017-Nov-05 22:30S 33°06' E 151°55'1 1.1
2017-Nov-05 21:59S 33°07' E 151°55'1 2.5
2017-Nov-05 21:31S 33°07' E 151°56'1 2.4
2017-Nov-05 21:00S 33°06' E 151°57'1 2.1
2017-Nov-05 20:29S 33°06' E 151°56'1 2.1
2017-Nov-05 20:01S 33°06' E 151°55'1 2.5
2017-Nov-05 19:30S 33°06' E 151°57'1 1.8
2017-Nov-05 18:56S 33°06' E 151°58'2 3.4
2017-Nov-05 18:29S 33°07' E 151°57'2 1.4
2017-Nov-05 17:08S 33°06' E 151°58'0 1.0
2017-Nov-05 17:01S 33°06' E 151°58'5 7.3
2017-Nov-05 16:20S 33°10' E 151°55'1 1.7
2017-Nov-05 16:00S 33°10' E 151°55'5 1.4
2017-Nov-05 12:39S 33°07' E 151°58'0 1.5
2017-Nov-05 12:21S 33°07' E 151°59'1 2.5
2017-Nov-05 11:59S 33°06' E 151°58'3 5.3
2017-Nov-05 11:30S 33°04' E 151°57'0 1.0
2017-Nov-05 11:01S 33°03' E 151°56'1 1.4
2017-Nov-05 10:30S 33°04' E 151°57'1 1.4
2017-Nov-05 10:01S 33°05' E 151°57'1 1.3
2017-Nov-05 09:30S 33°05' E 151°57'1 1.1
2017-Nov-05 09:00S 33°06' E 151°58'2 3.4
2017-Nov-05 08:30S 33°07' E 151°56'1 0.5
2017-Nov-05 07:02S 33°06' E 151°56'0 1.7
2017-Nov-05 06:59S 33°06' E 151°56'3 1.8
2017-Nov-05 05:09S 33°03' E 151°57'0 2.6
2017-Nov-05 05:00S 33°03' E 151°57'1 1.5
2017-Nov-05 04:30S 33°04' E 151°57'1 1.5
2017-Nov-05 03:59S 33°05' E 151°58'1 1.5
2017-Nov-05 03:28S 33°05' E 151°58'1 1.4
2017-Nov-05 02:56S 33°06' E 151°58'1 1.4
2017-Nov-05 02:27S 33°07' E 151°59'1 2.0
2017-Nov-05 01:57S 33°06' E 151°58'4 8.4
2017-Nov-05 01:29S 33°02' E 151°57'0 0.9
2017-Nov-05 00:59S 33°03' E 151°57'1 1.3
2017-Nov-05 00:30S 33°03' E 151°57'1 1.3
2017-Nov-04 23:59S 33°04' E 151°57'1 1.2
2017-Nov-04 23:31S 33°05' E 151°57'1 1.2
2017-Nov-04 22:52S 33°05' E 151°58'0 1.1
2017-Nov-04 22:31S 33°06' E 151°58'2 4.7
2017-Nov-04 21:59S 33°06' E 151°55'3 6.2
2017-Nov-04 21:30S 33°06' E 151°51'1 0.4
2017-Nov-04 20:16S 33°06' E 151°51'0 1.1
2017-Nov-04 19:55S 33°06' E 151°51'0 1.1
2017-Nov-04 19:30S 33°06' E 151°52'1 1.3
2017-Nov-04 19:00S 33°06' E 151°53'1 1.3
2017-Nov-04 18:31S 33°07' E 151°53'1 1.4
2017-Nov-04 17:58S 33°07' E 151°54'1 1.4
2017-Nov-04 17:27S 33°07' E 151°55'1 1.4
2017-Nov-04 17:00S 33°07' E 151°56'1 1.4
2017-Nov-04 16:30S 33°07' E 151°57'1 1.5
2017-Nov-04 16:00S 33°07' E 151°57'1 1.3
2017-Nov-04 15:30S 33°07' E 151°58'3 6.3
2017-Nov-04 15:00S 33°04' E 151°60'0 0.5
2017-Nov-04 14:31S 33°04' E 151°60'1 1.3
2017-Nov-04 14:00S 33°05' E 151°60'1 1.3
2017-Nov-04 13:31S 33°05' E 151°60'0 0.8
2017-Nov-04 13:01S 33°06' E 151°60'3 5.2
2017-Nov-04 12:31S 33°06' E 151°57'3 5.4
2017-Nov-04 12:00S 33°06' E 151°53'1 2.1
2017-Nov-04 11:31S 33°06' E 151°52'1 1.4
2017-Nov-04 11:00S 33°07' E 151°53'1 1.4
2017-Nov-04 10:30S 33°07' E 151°54'1 1.3
2017-Nov-04 10:00S 33°07' E 151°54'2 2.5
2017-Nov-04 09:00S 33°05' E 151°54'1 1.3
2017-Nov-04 08:30S 33°05' E 151°53'1 1.2
2017-Nov-04 08:00S 33°05' E 151°53'2 3.1
2017-Nov-04 07:29S 33°05' E 151°51'1 1.1
2017-Nov-04 07:01S 33°05' E 151°51'1 1.1
2017-Nov-04 06:30S 33°06' E 151°52'1 1.1
2017-Nov-04 05:59S 33°06' E 151°52'1 1.2
2017-Nov-04 05:30S 33°06' E 151°52'0 0.8
2017-Nov-04 05:00S 33°07' E 151°53'2 3.3
2017-Nov-04 04:31S 33°06' E 151°55'3 5.8
2017-Nov-04 04:00S 33°03' E 151°55'1 1.4
2017-Nov-04 03:31S 33°04' E 151°55'1 1.4
2017-Nov-04 02:56S 33°05' E 151°55'1 1.3
2017-Nov-04 02:30S 33°05' E 151°54'1 1.3
2017-Nov-04 02:00S 33°06' E 151°54'1 1.1
2017-Nov-04 01:30S 33°06' E 151°54'1 1.6
2017-Nov-04 00:49S 33°06' E 151°53'3 7.9
2017-Nov-04 00:30S 33°04' E 151°52'1 2.9
2017-Nov-04 00:01S 33°05' E 151°51'4713.4
2017-Nov-03 20:31S 33°49' E 151°33'013.7
2017-Nov-03 20:30S 33°49' E 151°33'  
Track history (hours):
 
Tides and Currents Weather Stations Pressure Air Temp Water Temp Dewpoint Dewpoint Depression Visibility Wind Speed Wind Dir Waves Ship Positions

Foochow

Last reported at 2017-Nov-10 21:26 UTC. Time now 2017-Nov-21 04:41 UTC.
Position S 33°01' E 152°28'.
Warning: this ship's position is 10 days out of date.

Length 180 m; draft 10.7 m.

Type: Cargo ship. MMSI: 563217000.

Date/timePositionNaut miles runAvg speedWind from/ knotsBaromVisibWave heightAir tempDewpointWater temp
2017-Nov-10 21:26S 33°01' E 152°28'511.7
2017-Nov-10 21:00S 33°00' E 152°22'611.7
2017-Nov-10 20:30S 32°60' E 152°15'611.2
2017-Nov-10 20:00S 32°59' E 152°09'611.3
2017-Nov-10 19:30S 32°58' E 152°02'612.0
2017-Nov-10 19:00S 32°58' E 151°55'5 8.8
2017-Nov-10 18:29S 32°57' E 151°50'3 5.1
2017-Nov-10 18:00S 32°55' E 151°47'2 3.6
2017-Nov-10 17:29S 32°54' E 151°46'1 0.0
2017-Nov-09 17:59S 32°53' E 151°45'1 1.5
2017-Nov-09 17:30S 32°53' E 151°46'2 3.3
2017-Nov-09 17:00S 32°55' E 151°47'3 6.3
2017-Nov-09 16:31S 32°55' E 151°50'3 6.9
2017-Nov-09 16:00S 32°58' E 151°52'3 5.2
2017-Nov-09 15:30S 33°00' E 151°53'2 4.0
2017-Nov-09 15:00S 33°02' E 151°52'3 5.4
2017-Nov-09 14:31S 33°05' E 151°52'4 6.7
2017-Nov-09 13:56S 33°09' E 151°52'2 2.8
2017-Nov-09 13:21S 33°10' E 151°51'1 1.3
2017-Nov-09 12:53S 33°10' E 151°52'1 1.4
2017-Nov-09 12:30S 33°10' E 151°52'1 1.6
2017-Nov-09 11:59S 33°09' E 151°53'1 1.5
2017-Nov-09 11:30S 33°09' E 151°54'1 1.5
2017-Nov-09 10:56S 33°08' E 151°55'1 2.5
2017-Nov-09 10:26S 33°07' E 151°54'1 3.1
2017-Nov-09 10:00S 33°06' E 151°53'3 5.1
2017-Nov-09 09:29S 33°09' E 151°53'1 1.3
2017-Nov-09 09:01S 33°09' E 151°53'1 1.3
2017-Nov-09 08:26S 33°08' E 151°54'1 1.3
2017-Nov-09 08:00S 33°08' E 151°55'1 1.3
2017-Nov-09 07:17S 33°08' E 151°56'0 1.3
2017-Nov-09 06:59S 33°08' E 151°56'0 1.0
2017-Nov-09 06:31S 33°08' E 151°57'1 1.2
2017-Nov-09 06:01S 33°07' E 151°57'0 0.8
2017-Nov-09 05:30S 33°07' E 151°57'2 4.4
2017-Nov-09 04:59S 33°07' E 151°54'2 4.6
2017-Nov-09 04:30S 33°07' E 151°52'0 0.6
2017-Nov-09 04:01S 33°07' E 151°51'0 0.9
2017-Nov-09 03:30S 33°07' E 151°52'1 1.0
2017-Nov-09 03:00S 33°07' E 151°53'1 0.9
2017-Nov-09 02:27S 33°07' E 151°53'0 0.9
2017-Nov-09 02:01S 33°07' E 151°54'0 0.9
2017-Nov-09 01:30S 33°07' E 151°54'1 1.0
2017-Nov-09 01:01S 33°07' E 151°55'0 0.9
2017-Nov-09 00:31S 33°07' E 151°55'0 0.8
2017-Nov-09 00:01S 33°07' E 151°56'0 0.8
2017-Nov-08 23:30S 33°07' E 151°56'0 0.7
2017-Nov-08 23:00S 33°07' E 151°57'0 0.6
2017-Nov-08 22:21S 33°07' E 151°57'2 6.0
2017-Nov-08 22:00S 33°06' E 151°55'2 3.3
2017-Nov-08 21:30S 33°05' E 151°53'0 0.3
2017-Nov-08 21:00S 33°05' E 151°53'0 0.2
2017-Nov-08 20:30S 33°05' E 151°53'0 0.3
2017-Nov-08 20:01S 33°05' E 151°53'0 0.4
2017-Nov-08 19:31S 33°06' E 151°53'0 0.6
2017-Nov-08 19:01S 33°06' E 151°53'0 0.7
2017-Nov-08 18:31S 33°06' E 151°54'0 0.7
2017-Nov-08 18:01S 33°06' E 151°54'0 0.6
2017-Nov-08 17:31S 33°06' E 151°55'0 0.4
2017-Nov-08 17:01S 33°06' E 151°55'1 2.8
2017-Nov-08 16:30S 33°05' E 151°54'0 0.3
2017-Nov-08 16:00S 33°05' E 151°54'0 0.7
2017-Nov-08 15:31S 33°05' E 151°54'0 0.6
2017-Nov-08 15:00S 33°05' E 151°54'0 0.3
2017-Nov-08 14:30S 33°05' E 151°55'2 3.0
2017-Nov-08 14:01S 33°07' E 151°54'0 0.6
2017-Nov-08 13:31S 33°07' E 151°54'2 1.3
2017-Nov-08 12:20S 33°05' E 151°54'1 2.1
2017-Nov-08 12:00S 33°05' E 151°54'0 0.7
2017-Nov-08 11:31S 33°06' E 151°54'0 0.6
2017-Nov-08 11:00S 33°06' E 151°54'0 0.7
2017-Nov-08 10:31S 33°06' E 151°55'0 0.1
2017-Nov-08 09:59S 33°06' E 151°55'4 1.1
2017-Nov-08 06:29S 33°08' E 151°51'2 3.7
2017-Nov-08 05:59S 33°10' E 151°51'4 1.9
2017-Nov-08 03:48S 33°14' E 151°49'10 2.1
2017-Nov-07 22:50S 33°05' E 151°55'2 4.7
2017-Nov-07 22:30S 33°06' E 151°54'3 4.1
2017-Nov-07 21:48S 33°09' E 151°52'1 3.5
2017-Nov-07 21:26S 33°10' E 151°51'2 0.4
2017-Nov-07 17:10S 33°12' E 151°52'5 0.7
2017-Nov-07 09:26S 33°06' E 151°54'1 2.0
2017-Nov-07 09:00S 33°06' E 151°53'1 1.4
2017-Nov-07 08:12S 33°06' E 151°54'2 2.4
2017-Nov-07 07:23S 33°04' E 151°55'1 2.3
2017-Nov-07 07:00S 33°03' E 151°56'1 1.1
2017-Nov-07 06:31S 33°04' E 151°56'1 1.2
2017-Nov-07 06:00S 33°04' E 151°56'1 1.0
2017-Nov-07 05:31S 33°05' E 151°56'0 1.0
2017-Nov-07 05:01S 33°05' E 151°57'1 1.1
2017-Nov-07 04:30S 33°06' E 151°57'1 1.0
2017-Nov-07 04:00S 33°06' E 151°57'3 2.1
2017-Nov-07 02:44S 33°04' E 151°57'1 3.9
2017-Nov-07 02:30S 33°03' E 151°58'0 0.8
2017-Nov-07 02:00S 33°02' E 151°58'0 1.0
2017-Nov-07 01:31S 33°03' E 151°58'0 1.0
2017-Nov-07 01:00S 33°03' E 151°58'0 0.8
2017-Nov-07 00:31S 33°04' E 151°58'0 0.8
2017-Nov-07 00:00S 33°04' E 151°58'0 0.8
2017-Nov-06 23:30S 33°05' E 151°59'0 0.8
2017-Nov-06 23:01S 33°05' E 151°59'0 0.7
2017-Nov-06 22:30S 33°05' E 151°59'0 0.7
2017-Nov-06 22:01S 33°06' E 151°59'1 1.1
2017-Nov-06 21:30S 33°05' E 151°58'1 2.9
2017-Nov-06 21:00S 33°04' E 151°57'2 2.9
2017-Nov-06 20:28S 33°03' E 151°56'8 0.4
2017-Nov-06 02:14S 33°11' E 151°56'0 1.8
2017-Nov-06 02:00S 33°10' E 151°56'1 2.4
2017-Nov-06 01:30S 33°09' E 151°57'1 2.5
2017-Nov-06 01:00S 33°08' E 151°57'1 2.6
2017-Nov-06 00:29S 33°07' E 151°58'1 2.5
2017-Nov-06 00:00S 33°06' E 151°58'1 1.9
2017-Nov-05 23:30S 33°06' E 151°57'1 1.9
2017-Nov-05 23:00S 33°06' E 151°56'1 1.8
2017-Nov-05 22:30S 33°06' E 151°55'1 1.1
2017-Nov-05 21:59S 33°07' E 151°55'1 2.5
2017-Nov-05 21:31S 33°07' E 151°56'1 2.4
2017-Nov-05 21:00S 33°06' E 151°57'1 2.1
2017-Nov-05 20:29S 33°06' E 151°56'1 2.1
2017-Nov-05 20:01S 33°06' E 151°55'1 2.5
2017-Nov-05 19:30S 33°06' E 151°57'1 1.8
2017-Nov-05 18:56S 33°06' E 151°58'2 3.4
2017-Nov-05 18:29S 33°07' E 151°57'2 1.4
2017-Nov-05 17:08S 33°06' E 151°58'0 1.0
2017-Nov-05 17:01S 33°06' E 151°58'5 7.3
2017-Nov-05 16:20S 33°10' E 151°55'1 1.7
2017-Nov-05 16:00S 33°10' E 151°55'5 1.4
2017-Nov-05 12:39S 33°07' E 151°58'0 1.5
2017-Nov-05 12:21S 33°07' E 151°59'1 2.5
2017-Nov-05 11:59S 33°06' E 151°58'3 5.3
2017-Nov-05 11:30S 33°04' E 151°57'0 1.0
2017-Nov-05 11:01S 33°03' E 151°56'1 1.4
2017-Nov-05 10:30S 33°04' E 151°57'1 1.4
2017-Nov-05 10:01S 33°05' E 151°57'1 1.3
2017-Nov-05 09:30S 33°05' E 151°57'1 1.1
2017-Nov-05 09:00S 33°06' E 151°58'2 3.4
2017-Nov-05 08:30S 33°07' E 151°56'1 0.5
2017-Nov-05 07:02S 33°06' E 151°56'0 1.7
2017-Nov-05 06:59S 33°06' E 151°56'3 1.8
2017-Nov-05 05:09S 33°03' E 151°57'0 2.6
2017-Nov-05 05:00S 33°03' E 151°57'1 1.5
2017-Nov-05 04:30S 33°04' E 151°57'1 1.5
2017-Nov-05 03:59S 33°05' E 151°58'1 1.5
2017-Nov-05 03:28S 33°05' E 151°58'1 1.4
2017-Nov-05 02:56S 33°06' E 151°58'1 1.4
2017-Nov-05 02:27S 33°07' E 151°59'1 2.0
2017-Nov-05 01:57S 33°06' E 151°58'4 8.4
2017-Nov-05 01:29S 33°02' E 151°57'0 0.9
2017-Nov-05 00:59S 33°03' E 151°57'1 1.3
2017-Nov-05 00:30S 33°03' E 151°57'1 1.3
2017-Nov-04 23:59S 33°04' E 151°57'1 1.2
2017-Nov-04 23:31S 33°05' E 151°57'1 1.2
2017-Nov-04 22:52S 33°05' E 151°58'0 1.1
2017-Nov-04 22:31S 33°06' E 151°58'2 4.7
2017-Nov-04 21:59S 33°06' E 151°55'3 6.2
2017-Nov-04 21:30S 33°06' E 151°51'1 0.4
2017-Nov-04 20:16S 33°06' E 151°51'0 1.1
2017-Nov-04 19:55S 33°06' E 151°51'0 1.1
2017-Nov-04 19:30S 33°06' E 151°52'1 1.3
2017-Nov-04 19:00S 33°06' E 151°53'1 1.3
2017-Nov-04 18:31S 33°07' E 151°53'1 1.4
2017-Nov-04 17:58S 33°07' E 151°54'1 1.4
2017-Nov-04 17:27S 33°07' E 151°55'1 1.4
2017-Nov-04 17:00S 33°07' E 151°56'1 1.4
2017-Nov-04 16:30S 33°07' E 151°57'1 1.5
2017-Nov-04 16:00S 33°07' E 151°57'1 1.3
2017-Nov-04 15:30S 33°07' E 151°58'3 6.3
2017-Nov-04 15:00S 33°04' E 151°60'0 0.5
2017-Nov-04 14:31S 33°04' E 151°60'1 1.3
2017-Nov-04 14:00S 33°05' E 151°60'1 1.3
2017-Nov-04 13:31S 33°05' E 151°60'0 0.8
2017-Nov-04 13:01S 33°06' E 151°60'3 5.2
2017-Nov-04 12:31S 33°06' E 151°57'3 5.4
2017-Nov-04 12:00S 33°06' E 151°53'1 2.1
2017-Nov-04 11:31S 33°06' E 151°52'1 1.4
2017-Nov-04 11:00S 33°07' E 151°53'1 1.4
2017-Nov-04 10:30S 33°07' E 151°54'1 1.3
2017-Nov-04 10:00S 33°07' E 151°54'2 2.5
2017-Nov-04 09:00S 33°05' E 151°54'1 1.3
2017-Nov-04 08:30S 33°05' E 151°53'1 1.2
2017-Nov-04 08:00S 33°05' E 151°53'2 3.1
2017-Nov-04 07:29S 33°05' E 151°51'1 1.1
2017-Nov-04 07:01S 33°05' E 151°51'1 1.1
2017-Nov-04 06:30S 33°06' E 151°52'1 1.1
2017-Nov-04 05:59S 33°06' E 151°52'1 1.2
2017-Nov-04 05:30S 33°06' E 151°52'0 0.8
2017-Nov-04 05:00S 33°07' E 151°53'2 3.3
2017-Nov-04 04:31S 33°06' E 151°55'3 5.8
2017-Nov-04 04:00S 33°03' E 151°55'1 1.4
2017-Nov-04 03:31S 33°04' E 151°55'1 1.4
2017-Nov-04 02:56S 33°05' E 151°55'1 1.3
2017-Nov-04 02:30S 33°05' E 151°54'1 1.3
2017-Nov-04 02:00S 33°06' E 151°54'1 1.1
2017-Nov-04 01:30S 33°06' E 151°54'1 1.6
2017-Nov-04 00:49S 33°06' E 151°53'3 7.9
2017-Nov-04 00:30S 33°04' E 151°52'1 2.9
2017-Nov-04 00:01S 33°05' E 151°51'4713.4
2017-Nov-03 20:31S 33°49' E 151°33'013.7
2017-Nov-03 20:30S 33°49' E 151°33'  

Dump ship's entire track history